Time;durP1;ratioP1;P1;durP2;ratioP2;P2;SDS_P1;SDS_P2;PMS_P1;PMS_P2;Temp;Humidity;BMP_temperature;BMP_pressure;BME280_temperature;BME280_humidity;BME280_pressure;Samples;Min_cycle;Max_cycle;Signal;HPM_P1;HPM_P2
2022/01/07 00:00:50;;;;;;;1.33;0.60;;;;;;;14.05;46.82;96547.91;5092469;28;20039;-31
2022/01/07 00:03:18;;;;;;;1.67;0.88;;;;;;;14.02;46.51;96555.78;5086653;28;20020;-31
2022/01/07 00:05:43;;;;;;;1.35;0.60;;;;;;;14.02;46.55;96550.31;5073969;28;20025;-31
2022/01/07 00:08:09;;;;;;;2.22;0.70;;;;;;;13.90;46.83;96553.88;5106282;28;20028;-31
2022/01/07 00:10:35;;;;;;;0.75;0.50;;;;;;;13.90;46.95;96558.56;5072960;28;20453;-32
2022/01/07 00:13:00;;;;;;;0.68;0.45;;;;;;;14.01;46.65;96562.44;5104540;28;20028;-31
2022/01/07 00:15:26;;;;;;;1.10;0.50;;;;;;;14.05;46.86;96565.03;5106087;28;20039;-31
2022/01/07 00:17:52;;;;;;;1.80;0.55;;;;;;;14.06;46.61;96560.34;5074034;28;20020;-31
2022/01/07 00:20:19;;;;;;;0.82;0.50;;;;;;;14.03;46.51;96557.28;5106244;28;20124;-31
2022/01/07 00:22:47;;;;;;;0.63;0.35;;;;;;;14.01;46.74;96558.94;5074730;28;20467;-31
2022/01/07 00:25:14;;;;;;;0.68;0.40;;;;;;;14.02;46.77;96566.69;5073550;28;20489;-31
2022/01/07 00:27:40;;;;;;;0.68;0.40;;;;;;;14.14;46.22;96572.50;5073739;28;20055;-31
2022/01/07 00:30:08;;;;;;;2.15;0.60;;;;;;;14.00;46.44;96562.88;5074643;28;20421;-31
2022/01/07 00:32:34;;;;;;;1.17;0.47;;;;;;;13.99;46.71;96567.56;5073350;28;20382;-31
2022/01/07 00:35:00;;;;;;;0.95;0.50;;;;;;;14.02;46.79;96571.38;5088933;28;20057;-31
2022/01/07 00:37:25;;;;;;;2.80;0.50;;;;;;;14.07;46.80;96567.31;5097588;28;20027;-31
2022/01/07 00:39:51;;;;;;;2.67;0.80;;;;;;;13.91;46.55;96571.75;5112293;28;20026;-31
2022/01/07 00:42:16;;;;;;;1.20;0.70;;;;;;;14.02;47.09;96571.38;5085430;28;20017;-31
2022/01/07 00:44:42;;;;;;;1.35;0.70;;;;;;;13.88;47.20;96574.59;5077617;28;20393;-31
2022/01/07 00:47:07;;;;;;;1.20;0.60;;;;;;;13.99;46.63;96575.75;5073938;28;20445;-31
2022/01/07 00:49:33;;;;;;;3.17;0.82;;;;;;;13.89;46.81;96573.41;5093708;28;20109;-31
2022/01/07 00:52:01;;;;;;;1.02;0.65;;;;;;;13.94;46.77;96581.78;5096611;28;20031;-31
2022/01/07 00:54:27;;;;;;;4.03;0.70;;;;;;;14.01;46.69;96584.25;5113499;28;20469;-31
2022/01/07 00:56:52;;;;;;;2.65;1.00;;;;;;;14.00;46.81;96580.00;5102393;28;20047;-31
2022/01/07 00:59:18;;;;;;;2.05;0.70;;;;;;;13.91;46.93;96581.91;5109566;28;20114;-31
2022/01/07 01:01:43;;;;;;;1.70;0.60;;;;;;;14.00;46.49;96588.19;5078623;28;20028;-31
2022/01/07 01:04:09;;;;;;;1.38;0.93;;;;;;;13.91;46.99;96581.91;5093597;28;20026;-31
2022/01/07 01:06:35;;;;;;;1.10;0.70;;;;;;;14.04;46.85;96579.88;5091866;28;20038;-31
2022/01/07 01:09:00;;;;;;;1.42;0.50;;;;;;;14.07;46.64;96580.97;5093078;28;20020;-33
2022/01/07 01:11:26;;;;;;;2.17;0.73;;;;;;;14.07;46.36;96580.97;5080208;28;20082;-31
2022/01/07 01:13:51;;;;;;;1.25;0.60;;;;;;;13.91;46.65;96571.75;5072837;28;20066;-31
2022/01/07 01:16:17;;;;;;;1.30;0.60;;;;;;;13.98;46.45;96570.72;5073414;28;20436;-32
2022/01/07 01:18:43;;;;;;;1.02;0.65;;;;;;;14.01;46.30;96580.75;5083486;28;20023;-31
2022/01/07 01:21:08;;;;;;;1.23;0.57;;;;;;;13.96;46.43;96579.38;5092788;28;20048;-31
2022/01/07 01:23:34;;;;;;;1.00;0.63;;;;;;;13.93;46.62;96574.81;5093019;28;20394;-33
2022/01/07 01:25:59;;;;;;;1.60;0.70;;;;;;;13.88;46.53;96580.81;5090946;28;20024;-31
2022/01/07 01:28:25;;;;;;;2.80;0.60;;;;;;;13.89;46.83;96576.91;5073017;28;20046;-31
2022/01/07 01:30:51;;;;;;;2.03;0.80;;;;;;;13.96;46.58;96581.34;5072830;28;20178;-31
2022/01/07 01:33:18;;;;;;;1.45;0.50;;;;;;;13.93;46.37;96582.22;5072690;28;20423;-31
2022/01/07 01:35:43;;;;;;;1.30;0.60;;;;;;;14.07;46.39;96581.72;5073041;28;20028;-31
2022/01/07 01:38:09;;;;;;;1.63;0.60;;;;;;;14.02;46.61;96588.50;5073202;28;20397;-31
2022/01/07 01:40:34;;;;;;;1.00;0.60;;;;;;;13.97;46.65;96580.88;5073204;28;20027;-31
2022/01/07 01:43:01;;;;;;;0.95;0.50;;;;;;;14.04;46.32;96590.78;5072787;28;20037;-31
2022/01/07 01:45:27;;;;;;;1.10;0.50;;;;;;;13.92;46.89;96589.66;5072578;28;20028;-31
2022/01/07 01:47:54;;;;;;;1.52;0.52;;;;;;;14.00;46.17;96601.81;5089719;28;20039;-31
2022/01/07 01:50:21;;;;;;;1.58;0.50;;;;;;;13.94;46.58;96586.47;5092835;28;20028;-31
2022/01/07 01:52:49;;;;;;;1.67;0.50;;;;;;;14.01;46.63;96588.94;5092614;28;20165;-31
2022/01/07 01:55:18;;;;;;;0.82;0.50;;;;;;;13.84;46.82;96593.84;5092848;28;20059;-31
2022/01/07 01:57:44;;;;;;;0.82;0.50;;;;;;;13.97;46.34;96580.16;5076997;28;20056;-31
2022/01/07 02:00:10;;;;;;;0.93;0.50;;;;;;;13.97;46.41;96580.88;5072782;28;20035;-31
2022/01/07 02:02:36;;;;;;;2.65;0.55;;;;;;;13.90;46.63;96586.59;5083918;28;20065;-31
2022/01/07 02:05:03;;;;;;;0.95;0.40;;;;;;;13.92;46.61;96583.44;5092669;28;20062;-31
2022/01/07 02:07:31;;;;;;;2.10;0.55;;;;;;;13.96;46.41;96592.25;5079685;28;20040;-31
2022/01/07 02:09:57;;;;;;;1.17;0.50;;;;;;;13.95;46.59;96585.28;5072288;28;20029;-31
2022/01/07 02:12:22;;;;;;;1.33;0.82;;;;;;;13.76;46.84;96586.34;5078947;28;20020;-31
2022/01/07 02:14:55;;;;;;;1.58;0.50;;;;;;;13.88;46.53;96586.28;5092735;28;20469;-31
2022/01/07 02:17:22;;;;;;;0.95;0.40;;;;;;;13.96;46.54;96589.53;5081229;28;20430;-31
2022/01/07 02:19:49;;;;;;;1.67;0.50;;;;;;;13.99;46.30;96597.56;5072435;28;20033;-31
2022/01/07 02:22:17;;;;;;;1.27;0.40;;;;;;;13.94;46.26;96597.38;5072314;28;20098;-31
2022/01/07 02:24:44;;;;;;;1.27;0.43;;;;;;;13.90;46.56;96597.50;5072469;28;20047;-31
2022/01/07 02:27:11;;;;;;;1.45;0.60;;;;;;;13.58;46.25;96597.88;5082252;28;20490;-32
2022/01/07 02:29:37;;;;;;;1.38;0.40;;;;;;;13.81;46.75;96605.63;5092219;28;20028;-31
2022/01/07 02:32:02;;;;;;;1.05;0.43;;;;;;;13.92;46.32;96595.09;5095222;28;20428;-31
2022/01/07 02:34:28;;;;;;;1.17;0.60;;;;;;;13.93;46.77;96595.84;5094665;28;20028;-31
2022/01/07 02:36:53;;;;;;;3.47;0.85;;;;;;;13.86;46.63;96596.09;5090743;28;20077;-31
2022/01/07 02:39:19;;;;;;;2.05;0.60;;;;;;;13.93;46.47;96596.63;5075734;28;20027;-31
2022/01/07 02:41:45;;;;;;;0.70;0.40;;;;;;;13.93;46.47;96593.91;5076081;28;20081;-31
2022/01/07 02:44:10;;;;;;;0.68;0.40;;;;;;;13.89;46.52;96593.25;5075739;28;20386;-33
2022/01/07 02:46:36;;;;;;;2.40;0.80;;;;;;;13.86;46.50;96596.09;5082889;28;20028;-32
2022/01/07 02:49:15;;;;;;;1.38;0.40;;;;;;;13.90;46.37;96597.50;5095710;28;20047;-31
2022/01/07 02:51:41;;;;;;;1.25;0.40;;;;;;;13.77;46.74;96590.59;5095971;28;20035;-31
2022/01/07 02:54:07;;;;;;;1.58;0.50;;;;;;;13.93;46.46;96590.41;5095589;28;20155;-31
2022/01/07 02:56:34;;;;;;;1.20;0.50;;;;;;;13.92;46.25;96595.09;5088469;28;20032;-31
2022/01/07 02:59:00;;;;;;;1.10;0.50;;;;;;;13.89;46.44;96595.97;5075478;28;20024;-31
2022/01/07 03:01:26;;;;;;;1.23;0.45;;;;;;;13.81;46.50;96589.28;5075247;28;20025;-31
2022/01/07 03:03:52;;;;;;;0.88;0.50;;;;;;;13.92;46.25;96589.66;5075185;28;20020;-31
2022/01/07 03:06:18;;;;;;;1.02;0.40;;;;;;;13.83;46.16;96586.88;5075575;28;20502;-32
2022/01/07 03:08:49;;;;;;;2.25;0.57;;;;;;;13.93;46.51;96588.44;5075078;28;20124;-31
2022/01/07 03:11:15;;;;;;;1.02;0.35;;;;;;;13.92;46.13;96586.91;5075393;28;20032;-31
2022/01/07 03:13:41;;;;;;;1.98;0.50;;;;;;;13.85;47.11;96591.84;5075262;28;20035;-31
2022/01/07 03:16:06;;;;;;;2.10;0.80;;;;;;;13.89;45.83;96589.75;5075290;28;20433;-31
2022/01/07 03:18:32;;;;;;;0.80;0.30;;;;;;;13.92;46.21;96589.66;5084127;28;20539;-31
2022/01/07 03:20:59;;;;;;;1.52;0.40;;;;;;;13.96;46.14;96592.25;5095364;28;20024;-31
2022/01/07 03:23:26;;;;;;;0.80;0.50;;;;;;;13.98;45.91;96598.00;5095068;28;20024;-31
2022/01/07 03:25:52;;;;;;;0.90;0.50;;;;;;;13.95;46.14;96593.47;5094573;28;20032;-31
2022/01/07 03:28:17;;;;;;;1.58;0.47;;;;;;;13.88;45.98;96594.47;5095006;28;20121;-31
2022/01/07 03:30:43;;;;;;;1.20;0.22;;;;;;;13.81;46.22;96592.00;5095356;28;20031;-31
2022/01/07 03:33:09;;;;;;;1.08;0.50;;;;;;;13.83;46.38;96591.56;5094986;28;20071;-31
2022/01/07 03:35:35;;;;;;;2.40;0.40;;;;;;;13.94;46.10;96597.38;5091761;28;20115;-31
2022/01/07 03:38:01;;;;;;;2.03;0.80;;;;;;;13.86;46.07;96591.41;5074513;28;20166;-31
2022/01/07 03:40:27;;;;;;;0.38;0.28;;;;;;;13.82;45.95;96585.34;5107396;28;20558;-32
2022/01/07 03:42:52;;;;;;;1.25;0.38;;;;;;;13.86;45.99;96588.69;5087165;28;20024;-31
2022/01/07 03:45:19;;;;;;;0.93;0.30;;;;;;;13.81;46.21;96592.00;5094633;28;20030;-31
2022/01/07 03:47:46;;;;;;;1.70;0.30;;;;;;;13.83;45.80;96589.59;5094914;28;20024;-31
2022/01/07 03:50:16;;;;;;;1.90;0.40;;;;;;;13.87;46.03;96589.44;5094547;28;20043;-31
2022/01/07 03:52:42;;;;;;;2.58;0.60;;;;;;;13.74;46.20;96592.22;5087941;28;20048;-31
2022/01/07 03:55:10;;;;;;;0.90;0.40;;;;;;;13.81;45.98;96597.44;5091636;28;20060;-31
2022/01/07 03:57:36;;;;;;;0.90;0.30;;;;;;;13.80;46.23;96593.19;5094512;28;20027;-31
2022/01/07 04:00:11;;;;;;;1.48;0.50;;;;;;;13.86;46.05;96594.13;5094680;28;20035;-31
2022/01/07 04:02:36;;;;;;;1.85;0.30;;;;;;;13.76;46.35;96595.28;5094675;28;20098;-31
2022/01/07 04:05:02;;;;;;;1.27;0.50;;;;;;;13.74;46.26;96597.69;5092612;28;20489;-31
2022/01/07 04:07:30;;;;;;;1.13;0.30;;;;;;;13.85;45.96;96592.59;5094528;28;20386;-31
2022/01/07 04:09:58;;;;;;;1.35;0.40;;;;;;;13.77;46.08;96599.53;5092853;28;20555;-31
2022/01/07 04:12:24;;;;;;;0.28;0.20;;;;;;;13.79;46.14;96602.56;5088671;28;20028;-31
2022/01/07 04:14:57;;;;;;;1.05;0.30;;;;;;;13.78;46.17;96608.47;5073821;28;20028;-32
2022/01/07 04:17:22;;;;;;;;;;;;;;;13.85;45.80;96606.25;5074540;28;20032;-31
2022/01/07 04:19:48;;;;;;;1.48;0.45;;;;;;;13.85;46.11;96611.69;5073931;28;19917;-31
2022/01/07 04:22:13;;;;;;;1.65;0.35;;;;;;;13.79;46.29;96607.25;5073516;28;20064;-31
2022/01/07 04:24:38;;;;;;;0.70;0.40;;;;;;;13.68;46.06;96612.31;5073837;28;20025;-32
2022/01/07 04:27:04;;;;;;;0.38;0.20;;;;;;;13.82;45.77;96606.38;5073769;28;20018;-32
2022/01/07 04:29:29;;;;;;;0.60;0.30;;;;;;;13.78;45.68;96609.22;5073712;28;20043;-31
2022/01/07 04:31:55;;;;;;;0.90;0.40;;;;;;;13.81;45.86;96616.53;5107409;28;20027;-31
2022/01/07 04:34:20;;;;;;;0.55;0.28;;;;;;;13.84;45.84;96617.59;5093777;28;20100;-31
2022/01/07 04:36:46;;;;;;;0.65;0.30;;;;;;;13.79;45.86;96618.94;5093770;28;20020;-32
2022/01/07 04:39:11;;;;;;;1.95;0.40;;;;;;;13.76;45.95;96608.13;5093746;28;20486;-31
2022/01/07 04:41:36;;;;;;;1.70;0.50;;;;;;;13.85;46.25;96616.38;5093666;28;20112;-31
2022/01/07 04:44:02;;;;;;;0.85;0.40;;;;;;;13.73;46.03;96620.69;5093196;28;20016;-34
2022/01/07 04:46:27;;;;;;;1.13;0.38;;;;;;;13.72;45.91;96619.19;5093551;28;20023;-33
2022/01/07 04:48:53;;;;;;;0.63;0.40;;;;;;;13.66;46.20;96618.97;5093603;28;20378;-34
2022/01/07 04:51:18;;;;;;;1.58;0.50;;;;;;;13.77;46.25;96626.03;5091984;28;20028;-33
2022/01/07 04:53:44;;;;;;;0.65;0.30;;;;;;;13.75;46.05;96629.19;5093294;28;20048;-31
2022/01/07 04:56:09;;;;;;;1.88;0.30;;;;;;;13.84;45.59;96625.78;5093962;28;20030;-31
2022/01/07 04:58:34;;;;;;;0.88;0.50;;;;;;;13.77;46.27;96632.22;5093455;28;20039;-31
2022/01/07 05:01:00;;;;;;;1.27;0.20;;;;;;;13.74;45.83;96635.84;5093095;28;20462;-31
2022/01/07 05:03:25;;;;;;;0.63;0.20;;;;;;;13.82;46.03;96634.41;5091924;28;20024;-31
2022/01/07 05:06:02;;;;;;;1.15;0.28;;;;;;;13.73;45.80;96634.31;5090861;28;20032;-31
2022/01/07 05:08:27;;;;;;;0.60;0.30;;;;;;;13.75;45.92;96633.88;5073173;28;20055;-31
2022/01/07 05:10:53;;;;;;;1.60;0.40;;;;;;;13.63;46.14;96636.19;5073427;28;20017;-31
2022/01/07 05:13:18;;;;;;;1.98;0.43;;;;;;;13.66;45.76;96642.75;5072956;28;20024;-31
2022/01/07 05:15:44;;;;;;;1.75;0.30;;;;;;;13.72;46.22;96641.00;5073319;28;20033;-31
2022/01/07 05:18:09;;;;;;;1.17;0.45;;;;;;;13.74;46.11;96638.56;5074071;28;20367;-31
2022/01/07 05:20:34;;;;;;;0.68;0.30;;;;;;;13.81;45.93;96635.59;5072847;28;20536;-31
2022/01/07 05:23:00;;;;;;;0.45;0.20;;;;;;;13.69;46.20;96641.88;5073197;28;20531;-31
2022/01/07 05:25:27;;;;;;;1.63;0.32;;;;;;;13.74;45.58;96652.19;5073870;28;20032;-31
2022/01/07 05:27:53;;;;;;;1.67;0.30;;;;;;;13.80;45.83;96644.22;5072837;28;20025;-31
2022/01/07 05:30:18;;;;;;;0.43;0.30;;;;;;;13.76;45.64;96657.97;5077434;28;20031;-33
2022/01/07 05:32:44;;;;;;;0.73;0.38;;;;;;;13.74;45.81;96649.47;5093049;28;20473;-31
2022/01/07 05:35:09;;;;;;;1.05;0.30;;;;;;;13.69;46.12;96652.00;5084643;28;20029;-31
2022/01/07 05:37:35;;;;;;;2.05;0.52;;;;;;;13.62;46.35;96656.47;5072841;28;20026;-31
2022/01/07 05:40:01;;;;;;;0.52;0.20;;;;;;;13.69;46.05;96647.31;5073051;28;20016;-31
2022/01/07 05:42:26;;;;;;;0.47;0.28;;;;;;;13.81;45.72;96659.38;5072794;28;20020;-31
2022/01/07 05:44:52;;;;;;;1.20;0.40;;;;;;;13.67;45.90;96660.63;5078043;28;20023;-31
2022/01/07 05:47:18;;;;;;;0.60;0.20;;;;;;;13.82;45.66;96658.94;5074597;28;20111;-31
2022/01/07 05:49:43;;;;;;;3.15;0.40;;;;;;;13.79;45.69;96651.63;5072680;28;20024;-31
2022/01/07 05:52:08;;;;;;;1.05;0.30;;;;;;;13.78;45.87;96652.84;5073116;28;20052;-31
2022/01/07 05:54:34;;;;;;;1.10;0.47;;;;;;;13.81;45.72;96654.69;5075014;28;20024;-32
2022/01/07 05:57:00;;;;;;;1.65;0.45;;;;;;;13.82;45.54;96658.94;5092396;28;20031;-31
2022/01/07 05:59:25;;;;;;;1.33;0.40;;;;;;;13.73;45.75;96653.38;5093090;28;20119;-31
2022/01/07 06:01:51;;;;;;;1.40;0.32;;;;;;;13.81;45.45;96660.13;5092651;28;20071;-32
2022/01/07 06:04:16;;;;;;;1.30;0.30;;;;;;;13.80;45.49;96653.16;5090737;28;20095;-32
2022/01/07 06:06:41;;;;;;;1.42;0.30;;;;;;;13.61;45.99;96671.31;5074937;28;20021;-31
2022/01/07 06:09:07;;;;;;;1.38;0.13;;;;;;;13.62;45.94;96663.91;5076214;28;20032;-31
2022/01/07 06:11:33;;;;;;;1.35;0.88;;;;;;;13.63;45.74;96665.41;5076165;28;20040;-31
2022/01/07 06:13:59;;;;;;;1.48;0.40;;;;;;;13.69;46.02;96671.09;5076399;28;20021;-31
2022/01/07 06:16:24;;;;;;;0.93;0.40;;;;;;;13.61;45.95;96674.03;5091615;28;20016;-32
2022/01/07 06:19:07;;;;;;;0.80;0.40;;;;;;;13.64;46.04;96672.38;5076232;28;20102;-31
2022/01/07 06:21:33;;;;;;;0.82;0.32;;;;;;;13.68;45.70;96678.50;5077390;28;20086;-31
2022/01/07 06:23:58;;;;;;;1.13;0.30;;;;;;;13.47;46.06;96690.09;5075709;28;20028;-31
2022/01/07 06:26:24;;;;;;;3.13;0.73;;;;;;;13.67;45.65;96674.25;5076166;28;20043;-31
2022/01/07 06:28:49;;;;;;;1.67;0.40;;;;;;;13.76;45.28;96679.00;5075960;28;20052;-32
2022/01/07 06:31:15;;;;;;;1.42;0.30;;;;;;;13.71;45.88;96674.91;5077043;28;20509;-31
2022/01/07 06:33:40;;;;;;;1.00;0.40;;;;;;;13.74;45.54;96676.72;5093262;28;20043;-32
2022/01/07 06:36:06;;;;;;;0.90;0.30;;;;;;;13.77;45.34;96681.28;5095877;28;20082;-31
2022/01/07 06:38:31;;;;;;;1.02;0.60;;;;;;;13.74;45.50;96687.63;5095767;28;20039;-31
2022/01/07 06:40:57;;;;;;;2.65;0.70;;;;;;;13.73;45.55;96683.38;5092962;28;20036;-31
2022/01/07 06:43:22;;;;;;;1.38;0.40;;;;;;;13.76;45.62;96682.50;5093758;28;20020;-31
2022/01/07 06:45:47;;;;;;;1.70;0.50;;;;;;;13.62;45.72;96680.25;5092585;28;20122;-31
2022/01/07 06:48:13;;;;;;;1.08;0.43;;;;;;;13.61;45.56;96686.88;5093961;28;20310;-31
2022/01/07 06:50:38;;;;;;;1.10;0.40;;;;;;;13.61;45.87;96692.34;5093808;28;20056;-31
2022/01/07 06:53:04;;;;;;;0.63;0.30;;;;;;;13.56;45.71;96688.22;5093306;28;20127;-31
2022/01/07 06:55:29;;;;;;;1.20;0.55;;;;;;;13.65;45.50;96685.59;5093902;28;20381;-31
2022/01/07 06:57:55;;;;;;;1.83;0.52;;;;;;;13.70;45.37;96697.13;5093648;28;20463;-31
2022/01/07 07:00:21;;;;;;;2.78;0.85;;;;;;;13.71;45.28;96691.25;5093713;28;20081;-31
2022/01/07 07:02:46;;;;;;;1.10;0.40;;;;;;;13.71;45.34;96691.25;5093571;28;20020;-31
2022/01/07 07:05:12;;;;;;;1.70;0.40;;;;;;;13.61;45.48;96695.06;5093204;28;20474;-31
2022/01/07 07:07:37;;;;;;;1.75;0.73;;;;;;;13.59;45.68;96692.03;5093480;28;20024;-31
2022/01/07 07:10:03;;;;;;;2.63;0.50;;;;;;;13.58;45.58;96690.53;5093535;28;20051;-32
2022/01/07 07:12:29;;;;;;;1.95;0.47;;;;;;;13.66;45.46;96687.09;5093387;28;20052;-31
2022/01/07 07:14:54;;;;;;;1.83;0.30;;;;;;;13.68;45.25;96697.56;5093586;28;20402;-31
2022/01/07 07:17:20;;;;;;;0.50;0.30;;;;;;;13.65;45.34;96701.19;5090718;28;20024;-31
2022/01/07 07:19:47;;;;;;;0.93;0.40;;;;;;;13.66;45.52;96697.25;5093391;28;20530;-31
2022/01/07 07:22:13;;;;;;;0.95;0.40;;;;;;;13.79;45.38;96695.25;5093144;28;20036;-31
2022/01/07 07:24:38;;;;;;;0.93;0.80;;;;;;;13.65;45.34;96706.63;5092967;28;20077;-31
2022/01/07 07:27:04;;;;;;;0.90;0.30;;;;;;;13.74;45.26;96703.97;5092904;28;20474;-31
2022/01/07 07:29:29;;;;;;;1.27;0.63;;;;;;;13.73;45.24;96696.25;5092816;28;20073;-31
2022/01/07 07:31:57;;;;;;;1.67;0.70;;;;;;;13.76;44.83;96709.00;5092992;28;20027;-31
2022/01/07 07:37:08;;;;;;;3.35;0.85;;;;;;;13.65;45.30;96703.91;5092963;28;20508;-31
2022/01/07 07:39:34;;;;;;;3.55;0.75;;;;;;;13.69;45.32;96707.28;5092836;28;20028;-31
2022/01/07 07:41:59;;;;;;;1.10;0.77;;;;;;;13.69;45.28;96707.28;5091431;28;20024;-31
2022/01/07 07:44:24;;;;;;;0.93;0.65;;;;;;;13.59;45.74;96706.44;5092798;28;20024;-31
2022/01/07 07:46:51;;;;;;;1.33;0.77;;;;;;;13.62;45.88;96702.03;5090659;28;20076;-31
2022/01/07 07:49:16;;;;;;;1.88;0.77;;;;;;;13.65;45.64;96709.34;5092699;28;20028;-31
2022/01/07 07:51:42;;;;;;;1.60;0.65;;;;;;;13.69;45.29;96698.34;5092340;28;20031;-31
2022/01/07 07:54:08;;;;;;;0.73;0.50;;;;;;;13.56;45.49;96701.09;5092373;28;20044;-31
2022/01/07 07:56:34;;;;;;;1.52;0.75;;;;;;;13.71;45.25;96704.13;5092626;28;20024;-31
2022/01/07 07:58:59;;;;;;;3.72;0.90;;;;;;;13.73;45.00;96701.69;5092342;28;20030;-31
2022/01/07 08:01:25;;;;;;;1.30;0.70;;;;;;;13.69;45.58;96696.38;5084697;28;20511;-31
2022/01/07 08:03:51;;;;;;;0.82;0.50;;;;;;;13.71;45.30;96704.13;5094138;28;20020;-31
2022/01/07 08:06:16;;;;;;;3.00;0.70;;;;;;;13.61;45.45;96701.28;5094334;28;20024;-31
2022/01/07 08:08:43;;;;;;;1.10;0.50;;;;;;;13.73;45.17;96694.28;5093983;28;20106;-31
2022/01/07 08:11:11;;;;;;;1.52;0.85;;;;;;;13.62;45.29;96702.03;5089725;28;20023;-31
2022/01/07 08:16:23;;;;;;;0.80;0.50;;;;;;;13.62;45.23;96707.50;5078366;28;20107;-31
2022/01/07 08:18:55;;;;;;;1.33;0.60;;;;;;;13.61;45.66;96700.50;5090319;28;20117;-31
2022/01/07 08:21:24;;;;;;;3.15;0.70;;;;;;;13.70;45.29;96697.91;5094197;28;20035;-31
2022/01/07 08:23:50;;;;;;;1.25;0.80;;;;;;;13.62;45.56;96704.78;5090429;28;20016;-31
2022/01/07 08:26:17;;;;;;;2.67;0.70;;;;;;;13.65;45.79;96703.91;5082785;28;20052;-33
2022/01/07 08:28:51;;;;;;;1.13;0.60;;;;;;;13.68;45.59;96702.25;5093592;28;20039;-32
2022/01/07 08:36:36;;;;;;;1.40;0.60;;;;;;;13.69;45.32;96707.28;5100676;28;20165;-31
2022/01/07 08:39:06;;;;;;;0.65;0.43;;;;;;;13.76;45.81;96706.25;5105875;28;20545;-31
2022/01/07 08:41:32;;;;;;;0.93;0.52;;;;;;;13.77;45.15;96714.00;5093280;28;20043;-31
2022/01/07 08:43:58;;;;;;;2.05;0.63;;;;;;;13.72;45.61;96709.13;5093028;28;20043;-31
2022/01/07 08:46:24;;;;;;;2.50;0.65;;;;;;;13.68;45.86;96713.16;5102410;28;20474;-31
2022/01/07 08:48:49;;;;;;;1.35;0.60;;;;;;;13.61;45.95;96708.69;5101089;28;20023;-32
2022/01/07 08:51:15;;;;;;;3.03;0.90;;;;;;;13.68;45.84;96715.88;5094571;28;20093;-31
2022/01/07 08:53:41;;;;;;;2.55;0.77;;;;;;;13.66;45.63;96719.06;5092770;28;20044;-31
2022/01/07 08:56:07;;;;;;;1.92;0.70;;;;;;;13.72;45.70;96719.28;5093662;28;20081;-31
2022/01/07 08:58:33;;;;;;;1.50;0.70;;;;;;;13.75;45.67;96727.31;5093682;28;20028;-32
2022/01/07 09:00:59;;;;;;;1.35;0.90;;;;;;;13.77;45.70;96724.16;5093866;28;20032;-31
2022/01/07 09:03:25;;;;;;;2.53;0.80;;;;;;;13.59;45.89;96730.19;5093407;28;20027;-31
2022/01/07 09:05:51;;;;;;;1.45;0.85;;;;;;;13.68;45.82;96733.00;5093503;28;20024;-31
2022/01/07 09:08:17;;;;;;;3.13;0.70;;;;;;;13.63;45.56;96733.53;5093251;28;20024;-31
2022/01/07 09:10:43;;;;;;;2.08;0.60;;;;;;;13.74;45.90;96733.19;5093377;28;20035;-32
2022/01/07 09:13:10;;;;;;;1.20;0.65;;;;;;;13.73;45.70;96728.94;5093080;28;20060;-31
2022/01/07 09:15:36;;;;;;;1.20;0.70;;;;;;;13.71;45.80;96736.81;5093256;28;20028;-31
2022/01/07 09:18:10;;;;;;;2.38;1.20;;;;;;;13.41;46.46;96730.75;5093133;28;20032;-31
2022/01/07 09:20:44;;;;;;;1.98;1.10;;;;;;;13.58;45.86;96742.28;5093163;28;20031;-31
2022/01/07 09:23:10;;;;;;;2.00;1.00;;;;;;;13.42;46.26;96743.16;5093110;28;20070;-31
2022/01/07 09:25:36;;;;;;;1.70;0.90;;;;;;;13.16;46.90;96741.66;5093083;28;20035;-33
2022/01/07 09:28:03;;;;;;;2.05;1.50;;;;;;;12.80;47.43;96741.91;5093166;28;20020;-30
2022/01/07 09:30:28;;;;;;;4.72;1.90;;;;;;;13.22;46.26;96739.91;5092995;28;20511;-30
2022/01/07 09:32:54;;;;;;;4.20;1.83;;;;;;;13.38;45.82;96739.03;5093026;28;20020;-31
2022/01/07 09:35:19;;;;;;;3.22;2.03;;;;;;;13.47;45.84;96731.75;5092957;28;20421;-32
2022/01/07 09:37:45;;;;;;;3.65;1.75;;;;;;;13.52;45.72;96736.63;5093157;28;20095;-30
2022/01/07 09:40:12;;;;;;;2.47;1.60;;;;;;;13.59;45.95;96741.09;5093005;28;20489;-31
2022/01/07 09:42:38;;;;;;;2.83;1.60;;;;;;;13.52;45.90;96742.06;5097241;28;20020;-31
2022/01/07 09:45:04;;;;;;;4.25;1.40;;;;;;;13.17;45.62;96749.38;5097174;28;20069;-32
2022/01/07 09:47:30;;;;;;;2.00;1.50;;;;;;;13.47;46.12;96739.91;5097076;28;20385;-31
2022/01/07 09:49:55;;;;;;;3.20;1.45;;;;;;;13.62;45.87;96740.97;5097397;28;20099;-31
2022/01/07 09:52:21;;;;;;;2.58;1.50;;;;;;;13.73;45.90;96743.34;5096727;28;20161;-32
2022/01/07 09:54:48;;;;;;;1.88;1.45;;;;;;;13.62;46.04;96742.91;5096694;28;20028;-32
2022/01/07 09:57:14;;;;;;;1.52;1.05;;;;;;;13.57;46.34;96733.34;5096783;28;20485;-31
2022/01/07 09:59:39;;;;;;;3.92;1.40;;;;;;;13.67;45.99;96736.94;5094699;28;20114;-34
2022/01/07 10:02:08;;;;;;;2.17;1.30;;;;;;;13.68;46.19;96738.47;5094487;28;20092;-31
2022/01/07 10:04:36;;;;;;;1.73;1.15;;;;;;;13.48;46.37;96740.66;5096607;28;20024;-30
2022/01/07 10:07:21;;;;;;;2.20;1.30;;;;;;;13.50;46.21;96733.56;5096516;28;20043;-31
2022/01/07 10:10:04;;;;;;;3.83;1.35;;;;;;;13.56;46.77;96736.50;5096729;28;20024;-31
2022/01/07 10:12:32;;;;;;;;;;;;;;;13.48;46.49;96727.03;5097115;28;20027;-30
2022/01/07 10:15:13;;;;;;;2.22;1.20;;;;;;;13.51;46.25;96723.44;5096294;28;19915;-30
2022/01/07 10:17:40;;;;;;;2.28;1.30;;;;;;;13.63;46.00;96720.69;5096591;28;20028;-31
2022/01/07 10:20:06;;;;;;;2.50;1.10;;;;;;;13.68;45.96;96721.34;5096256;28;20019;-30
2022/01/07 10:22:54;;;;;;;3.25;1.10;;;;;;;13.73;45.90;96716.06;5096285;28;20106;-30
2022/01/07 10:25:31;;;;;;;2.13;1.35;;;;;;;13.58;46.06;96723.22;5095296;28;20019;-31
2022/01/07 10:28:05;;;;;;;1.83;1.15;;;;;;;13.62;46.23;96718.41;5096324;28;20043;-31
2022/01/07 10:30:51;;;;;;;3.15;1.40;;;;;;;13.65;46.09;96712.84;5096360;28;20024;-30
2022/01/07 10:33:27;;;;;;;3.20;1.17;;;;;;;13.71;46.02;96710.34;5096111;28;20016;-31
2022/01/07 10:35:56;;;;;;;1.98;1.30;;;;;;;13.66;46.17;96708.91;5096533;28;20386;-30
2022/01/07 10:38:28;;;;;;;2.00;1.40;;;;;;;13.75;45.96;96705.50;5095969;28;20024;-30
2022/01/07 10:40:56;;;;;;;4.55;1.75;;;;;;;13.80;46.02;96707.69;5096225;28;20028;-30
2022/01/07 10:43:27;;;;;;;3.50;1.40;;;;;;;13.75;46.01;96702.78;5095933;28;20024;-31
2022/01/07 10:45:56;;;;;;;4.28;1.35;;;;;;;13.59;46.49;96702.94;5095951;28;20058;-30
2022/01/07 10:48:34;;;;;;;3.90;1.75;;;;;;;13.69;46.17;96701.06;5096110;28;20031;-31
2022/01/07 10:51:06;;;;;;;2.72;1.23;;;;;;;13.75;45.96;96697.31;5096084;28;20378;-32
2022/01/07 10:53:32;;;;;;;3.67;1.75;;;;;;;13.74;45.67;96698.53;5095438;28;20040;-30
2022/01/07 10:56:02;;;;;;;4.43;1.70;;;;;;;13.81;45.77;96690.13;5095901;28;20016;-30
2022/01/07 10:58:27;;;;;;;3.97;1.55;;;;;;;13.65;46.28;96685.59;5095599;28;20033;-31
2022/01/07 11:00:53;;;;;;;4.65;1.75;;;;;;;13.62;46.57;96681.00;5095649;28;20016;-30
2022/01/07 11:03:19;;;;;;;5.00;1.70;;;;;;;13.72;46.49;96681.13;5095668;28;20373;-30
2022/01/07 11:05:45;;;;;;;2.92;1.58;;;;;;;13.46;47.30;96683.91;5095619;28;20028;-31
2022/01/07 11:08:15;;;;;;;5.50;1.70;;;;;;;13.48;45.84;96686.16;5095846;28;20455;-32
2022/01/07 11:10:42;;;;;;;5.03;1.67;;;;;;;13.58;46.69;96680.38;5095692;28;20060;-30
2022/01/07 11:13:09;;;;;;;2.83;1.65;;;;;;;13.34;46.75;96679.22;5095356;28;20020;-30
2022/01/07 11:15:36;;;;;;;3.78;1.80;;;;;;;13.62;46.55;96672.84;5095437;28;20389;-30
2022/01/07 11:18:01;;;;;;;7.07;2.00;;;;;;;13.76;46.34;96671.59;5095307;28;20107;-31
2022/01/07 11:20:27;;;;;;;3.63;2.03;;;;;;;13.50;46.61;96664.69;5095195;28;20165;-31
2022/01/07 11:22:54;;;;;;;4.13;1.63;;;;;;;13.65;46.54;96663.03;5095126;28;20099;-30
2022/01/07 11:25:29;;;;;;;3.28;1.55;;;;;;;13.79;46.45;96657.09;5095075;28;20031;-30
2022/01/07 11:27:57;;;;;;;5.07;2.10;;;;;;;13.62;46.62;96650.25;5095149;28;20051;-30
2022/01/07 11:30:26;;;;;;;2.65;1.67;;;;;;;13.82;46.27;96645.31;5095199;28;20028;-31
2022/01/07 11:32:52;;;;;;;3.63;2.00;;;;;;;13.62;46.83;96640.13;5095182;28;20085;-30
2022/01/07 11:35:20;;;;;;;3.22;1.88;;;;;;;13.68;46.51;96637.63;5095047;28;20032;-30
2022/01/07 11:38:00;;;;;;;3.95;1.67;;;;;;;13.79;46.34;96634.53;5094895;28;20051;-30
2022/01/07 11:40:28;;;;;;;4.85;1.95;;;;;;;13.67;46.67;96627.91;5094831;28;20028;-30
2022/01/07 11:42:54;;;;;;;2.65;1.60;;;;;;;13.75;46.78;96629.19;5094813;28;20059;-30